Impacts METAR Board
IDs:

KPHL - Philadelphia Intl, PA, US

Updated at: 0700 UTC 16 Oct 2018
Potential Impact None Slight Moderate High
Time 15/19Z 15/20Z 15/21Z 15/22Z 15/23Z 16/00Z 16/01Z 16/02Z 16/03Z 16/04Z 16/05Z 16/06Z 16/07Z
Temp66 67 68 68 68 68 68 67 67 63 62 60 58
Dewpt62 63 63 63 63 63 64 64 65 57 54 50 45
Altim30.00 29.97 29.95 29.94 29.93 29.92 29.92 29.92 29.93 29.95 29.99 30.03 30.05
VIS10 10 10 10 10 10 10 10 10 8 10 10 10
CIG12 110 130 85 80 65 60 70 75 50 80 60 85
CoverOVCOVCOVCOVCOVCOVCOVCOVCOVCOVCOVCOVCOVC
FltCatMVFRVFRVFRVFRVFRVFRVFRVFRVFRVFRVFRVFRVFR
WX---RA---------RA-----RA------
WDir240220220220220230240240250310310300320
WSpd10 8 13 16 9 9 9 11 11 19 18 15 20
WGst-- -- 19 21 -- -- -- -- -- 27 29 25 29
Raw hourly METARs
KPHL 151854Z 24010KT 10SM OVC012 19/17 A3000 RMK AO2 SLP159 T01890167
KPHL 151954Z 22008KT 10SM -RA FEW012 OVC110 19/17 A2997 RMK AO2 RAB40 SLP149 P0000 T01940172
KPHL 152054Z 22013G19KT 10SM FEW012 SCT080 BKN130 OVC260 20/17 A2995 RMK AO2 RAE20 SLP141 P0000 60000 T02000172 58016
KPHL 152154Z 22016G21KT 10SM FEW012 BKN085 BKN120 OVC260 20/17 A2994 RMK AO2 SLP137 T02000172
KPHL 152254Z 22009KT 10SM BKN080 BKN130 OVC260 20/17 A2993 RMK AO2 RAB03E28 SLP135 P0000 T02000172 $
KPHL 152354Z 23009KT 10SM BKN065 BKN090 OVC120 20/17 A2992 RMK AO2 SLP133 60000 T02000172 10206 20183 56009 $
KPHL 160054Z 24009KT 10SM -RA BKN060 OVC120 20/18 A2992 RMK AO2 RAB48 SLP132 P0000 T02000178 $
KPHL 160154Z 24011KT 10SM BKN070 OVC130 19/18 A2992 RMK AO2 RAE0057B34E54 SLP132 P0000 T01940178 $
KPHL 160254Z 25011KT 10SM SCT060 BKN075 OVC130 19/18 A2993 RMK AO2 RAB32E45 SLP134 P0000 60000 T01940183 53002 $
KPHL 160401Z 31019G27KT 8SM -RA SCT022 BKN050 OVC090 17/14 A2995 RMK AO2 PK WND 30027/0358 P0000 T01720139 $
KPHL 160454Z 31018G29KT 10SM FEW042 BKN080 OVC110 17/12 A2999 RMK AO2 PK WND 32029/0452 RAE07B40E51 SLP155 P0000 T01670122 402060122 /
KPHL 160554Z 30015G25KT 10SM BKN060 BKN085 OVC120 16/10 A3003 RMK AO2 PK WND 33027/0504 RAB0457E25 SLP168 P0000 60000 T01560100 10206 20156 53034 $
KPHL 160654Z 32020G29KT 10SM BKN085 BKN110 OVC160 14/07 A3005 RMK AO2 PK WND 31029/0647 SLP177 T01440072 $



Page loaded:  07:34 UTC  |   12:34 AM Pacific  |   01:34 AM Mountain  |   02:34 AM Central  |   03:34 AM Eastern

 

ADVISORIES

FORECASTS

FORECASTS

OBSERVATIONS

USER TOOLS

ABOUT US